sensor_id;sensor_type;location;lat;lon;timestamp;P1;durP1;ratioP1;P2;durP2;ratioP2
4565;SDS011;2295;51.050;14.608;2024-03-17T00:00:48;12.40;;;3.13;;
4565;SDS011;2295;51.050;14.608;2024-03-17T00:03:17;3.15;;;1.90;;
4565;SDS011;2295;51.050;14.608;2024-03-17T00:05:43;4.45;;;2.20;;
4565;SDS011;2295;51.050;14.608;2024-03-17T00:08:11;7.88;;;2.50;;
4565;SDS011;2295;51.050;14.608;2024-03-17T00:10:37;8.55;;;3.05;;
4565;SDS011;2295;51.050;14.608;2024-03-17T00:13:05;5.97;;;2.60;;
4565;SDS011;2295;51.050;14.608;2024-03-17T00:15:31;9.20;;;2.85;;
4565;SDS011;2295;51.050;14.608;2024-03-17T00:17:59;7.55;;;2.40;;
4565;SDS011;2295;51.050;14.608;2024-03-17T00:20:28;16.80;;;2.70;;
4565;SDS011;2295;51.050;14.608;2024-03-17T00:22:55;5.65;;;2.20;;
4565;SDS011;2295;51.050;14.608;2024-03-17T00:25:23;3.67;;;2.33;;
4565;SDS011;2295;51.050;14.608;2024-03-17T00:27:49;7.13;;;2.40;;
4565;SDS011;2295;51.050;14.608;2024-03-17T00:30:20;10.68;;;2.90;;
4565;SDS011;2295;51.050;14.608;2024-03-17T00:32:47;4.47;;;2.50;;
4565;SDS011;2295;51.050;14.608;2024-03-17T00:35:16;5.47;;;2.42;;
4565;SDS011;2295;51.050;14.608;2024-03-17T00:37:47;10.30;;;2.63;;
4565;SDS011;2295;51.050;14.608;2024-03-17T00:40:15;6.65;;;3.60;;
4565;SDS011;2295;51.050;14.608;2024-03-17T00:42:43;3.45;;;2.55;;
4565;SDS011;2295;51.050;14.608;2024-03-17T00:45:10;6.72;;;2.65;;
4565;SDS011;2295;51.050;14.608;2024-03-17T00:47:38;8.98;;;2.97;;
4565;SDS011;2295;51.050;14.608;2024-03-17T00:50:05;6.63;;;3.05;;
4565;SDS011;2295;51.050;14.608;2024-03-17T00:52:34;5.38;;;2.30;;
4565;SDS011;2295;51.050;14.608;2024-03-17T00:55:01;11.18;;;2.50;;
4565;SDS011;2295;51.050;14.608;2024-03-17T00:57:32;3.05;;;2.13;;
4565;SDS011;2295;51.050;14.608;2024-03-17T00:59:58;4.50;;;2.50;;
4565;SDS011;2295;51.050;14.608;2024-03-17T01:02:26;17.42;;;3.00;;
4565;SDS011;2295;51.050;14.608;2024-03-17T01:04:52;7.15;;;2.55;;
4565;SDS011;2295;51.050;14.608;2024-03-17T01:07:19;11.15;;;2.47;;
4565;SDS011;2295;51.050;14.608;2024-03-17T01:09:46;6.05;;;3.05;;
4565;SDS011;2295;51.050;14.608;2024-03-17T01:12:15;5.30;;;2.80;;
4565;SDS011;2295;51.050;14.608;2024-03-17T01:14:42;5.68;;;2.60;;
4565;SDS011;2295;51.050;14.608;2024-03-17T01:17:09;6.85;;;2.53;;
4565;SDS011;2295;51.050;14.608;2024-03-17T01:19:35;5.60;;;2.95;;
4565;SDS011;2295;51.050;14.608;2024-03-17T01:22:03;6.07;;;3.03;;
4565;SDS011;2295;51.050;14.608;2024-03-17T01:24:29;3.70;;;2.50;;
4565;SDS011;2295;51.050;14.608;2024-03-17T01:26:59;8.13;;;2.22;;
4565;SDS011;2295;51.050;14.608;2024-03-17T01:29:27;3.90;;;2.58;;
4565;SDS011;2295;51.050;14.608;2024-03-17T01:31:54;15.00;;;3.03;;
4565;SDS011;2295;51.050;14.608;2024-03-17T01:34:21;7.50;;;2.90;;
4565;SDS011;2295;51.050;14.608;2024-03-17T01:36:49;6.90;;;2.85;;
4565;SDS011;2295;51.050;14.608;2024-03-17T01:39:19;6.03;;;2.53;;
4565;SDS011;2295;51.050;14.608;2024-03-17T01:41:46;7.43;;;2.60;;
4565;SDS011;2295;51.050;14.608;2024-03-17T01:44:22;6.18;;;2.83;;
4565;SDS011;2295;51.050;14.608;2024-03-17T01:46:51;4.90;;;2.63;;
4565;SDS011;2295;51.050;14.608;2024-03-17T01:49:18;11.20;;;3.10;;
4565;SDS011;2295;51.050;14.608;2024-03-17T01:51:46;16.08;;;3.72;;
4565;SDS011;2295;51.050;14.608;2024-03-17T01:54:15;8.43;;;2.92;;
4565;SDS011;2295;51.050;14.608;2024-03-17T01:56:42;10.77;;;4.80;;
4565;SDS011;2295;51.050;14.608;2024-03-17T01:59:10;6.20;;;3.08;;
4565;SDS011;2295;51.050;14.608;2024-03-17T02:01:36;6.68;;;3.42;;
4565;SDS011;2295;51.050;14.608;2024-03-17T02:04:08;3.35;;;2.40;;
4565;SDS011;2295;51.050;14.608;2024-03-17T02:06:35;6.55;;;3.05;;
4565;SDS011;2295;51.050;14.608;2024-03-17T02:09:02;8.93;;;2.72;;
4565;SDS011;2295;51.050;14.608;2024-03-17T02:11:29;10.30;;;3.30;;
4565;SDS011;2295;51.050;14.608;2024-03-17T02:13:58;4.68;;;2.30;;
4565;SDS011;2295;51.050;14.608;2024-03-17T02:16:26;12.93;;;2.70;;
4565;SDS011;2295;51.050;14.608;2024-03-17T02:18:54;7.88;;;2.78;;
4565;SDS011;2295;51.050;14.608;2024-03-17T02:21:22;8.88;;;3.20;;
4565;SDS011;2295;51.050;14.608;2024-03-17T02:23:51;8.45;;;2.53;;
4565;SDS011;2295;51.050;14.608;2024-03-17T02:26:18;7.40;;;3.13;;
4565;SDS011;2295;51.050;14.608;2024-03-17T02:28:51;11.32;;;3.17;;
4565;SDS011;2295;51.050;14.608;2024-03-17T02:31:43;5.65;;;3.55;;
4565;SDS011;2295;51.050;14.608;2024-03-17T02:34:19;7.57;;;3.55;;
4565;SDS011;2295;51.050;14.608;2024-03-17T02:36:58;12.77;;;3.47;;
4565;SDS011;2295;51.050;14.608;2024-03-17T02:39:26;8.13;;;3.22;;
4565;SDS011;2295;51.050;14.608;2024-03-17T02:42:02;7.38;;;3.08;;
4565;SDS011;2295;51.050;14.608;2024-03-17T02:44:33;8.55;;;3.22;;
4565;SDS011;2295;51.050;14.608;2024-03-17T02:47:05;10.90;;;3.30;;
4565;SDS011;2295;51.050;14.608;2024-03-17T02:49:34;13.43;;;2.97;;
4565;SDS011;2295;51.050;14.608;2024-03-17T02:52:05;13.05;;;3.15;;
4565;SDS011;2295;51.050;14.608;2024-03-17T02:54:36;7.22;;;3.08;;
4565;SDS011;2295;51.050;14.608;2024-03-17T02:57:04;6.13;;;2.83;;
4565;SDS011;2295;51.050;14.608;2024-03-17T02:59:33;10.82;;;3.35;;
4565;SDS011;2295;51.050;14.608;2024-03-17T03:02:00;8.52;;;3.63;;
4565;SDS011;2295;51.050;14.608;2024-03-17T03:04:28;14.38;;;3.70;;
4565;SDS011;2295;51.050;14.608;2024-03-17T03:06:58;8.07;;;3.65;;
4565;SDS011;2295;51.050;14.608;2024-03-17T03:09:29;9.23;;;4.00;;
4565;SDS011;2295;51.050;14.608;2024-03-17T03:11:59;9.57;;;3.33;;
4565;SDS011;2295;51.050;14.608;2024-03-17T03:14:28;6.65;;;3.50;;
4565;SDS011;2295;51.050;14.608;2024-03-17T03:16:55;12.35;;;4.30;;
4565;SDS011;2295;51.050;14.608;2024-03-17T03:19:22;9.27;;;3.72;;
4565;SDS011;2295;51.050;14.608;2024-03-17T03:21:50;9.02;;;3.47;;
4565;SDS011;2295;51.050;14.608;2024-03-17T03:24:18;15.15;;;4.22;;
4565;SDS011;2295;51.050;14.608;2024-03-17T03:26:45;9.18;;;3.70;;
4565;SDS011;2295;51.050;14.608;2024-03-17T03:29:15;16.50;;;4.72;;
4565;SDS011;2295;51.050;14.608;2024-03-17T03:34:39;14.82;;;4.00;;
4565;SDS011;2295;51.050;14.608;2024-03-17T03:37:07;6.35;;;4.00;;
4565;SDS011;2295;51.050;14.608;2024-03-17T03:39:37;10.40;;;4.00;;
4565;SDS011;2295;51.050;14.608;2024-03-17T03:42:05;5.20;;;3.35;;
4565;SDS011;2295;51.050;14.608;2024-03-17T03:44:34;17.35;;;4.07;;
4565;SDS011;2295;51.050;14.608;2024-03-17T03:47:01;14.88;;;4.10;;
4565;SDS011;2295;51.050;14.608;2024-03-17T03:49:28;9.15;;;3.75;;
4565;SDS011;2295;51.050;14.608;2024-03-17T03:51:56;8.02;;;3.70;;
4565;SDS011;2295;51.050;14.608;2024-03-17T03:54:24;7.53;;;3.28;;
4565;SDS011;2295;51.050;14.608;2024-03-17T03:56:51;11.45;;;3.63;;
4565;SDS011;2295;51.050;14.608;2024-03-17T03:59:19;6.95;;;3.45;;
4565;SDS011;2295;51.050;14.608;2024-03-17T04:02:00;11.88;;;3.72;;
4565;SDS011;2295;51.050;14.608;2024-03-17T04:04:31;7.18;;;4.20;;
4565;SDS011;2295;51.050;14.608;2024-03-17T04:06:59;12.23;;;3.85;;
4565;SDS011;2295;51.050;14.608;2024-03-17T04:09:26;11.18;;;3.92;;
4565;SDS011;2295;51.050;14.608;2024-03-17T04:11:54;9.32;;;3.58;;
4565;SDS011;2295;51.050;14.608;2024-03-17T04:14:26;10.95;;;3.75;;
4565;SDS011;2295;51.050;14.608;2024-03-17T04:17:11;11.10;;;4.40;;
4565;SDS011;2295;51.050;14.608;2024-03-17T04:19:43;14.85;;;5.10;;
4565;SDS011;2295;51.050;14.608;2024-03-17T04:22:12;7.50;;;4.13;;
4565;SDS011;2295;51.050;14.608;2024-03-17T04:24:39;11.20;;;4.47;;
4565;SDS011;2295;51.050;14.608;2024-03-17T04:27:10;5.88;;;3.70;;
4565;SDS011;2295;51.050;14.608;2024-03-17T04:29:38;21.17;;;5.18;;
4565;SDS011;2295;51.050;14.608;2024-03-17T04:32:06;9.65;;;4.07;;
4565;SDS011;2295;51.050;14.608;2024-03-17T04:34:38;14.73;;;4.72;;
4565;SDS011;2295;51.050;14.608;2024-03-17T04:37:05;12.48;;;4.55;;
4565;SDS011;2295;51.050;14.608;2024-03-17T04:39:35;11.68;;;5.00;;
4565;SDS011;2295;51.050;14.608;2024-03-17T04:42:03;11.73;;;4.63;;
4565;SDS011;2295;51.050;14.608;2024-03-17T04:44:31;12.98;;;4.20;;
4565;SDS011;2295;51.050;14.608;2024-03-17T04:46:59;24.17;;;4.55;;
4565;SDS011;2295;51.050;14.608;2024-03-17T04:49:26;10.20;;;4.22;;
4565;SDS011;2295;51.050;14.608;2024-03-17T04:51:55;13.15;;;3.78;;
4565;SDS011;2295;51.050;14.608;2024-03-17T04:54:22;8.73;;;4.15;;
4565;SDS011;2295;51.050;14.608;2024-03-17T04:56:50;13.35;;;4.47;;
4565;SDS011;2295;51.050;14.608;2024-03-17T04:59:17;9.52;;;4.30;;
4565;SDS011;2295;51.050;14.608;2024-03-17T05:01:44;11.52;;;3.75;;
4565;SDS011;2295;51.050;14.608;2024-03-17T05:04:12;11.55;;;4.40;;
4565;SDS011;2295;51.050;14.608;2024-03-17T05:06:39;15.25;;;3.67;;
4565;SDS011;2295;51.050;14.608;2024-03-17T05:09:08;15.60;;;4.63;;
4565;SDS011;2295;51.050;14.608;2024-03-17T05:11:38;11.10;;;4.03;;
4565;SDS011;2295;51.050;14.608;2024-03-17T05:14:20;12.77;;;3.80;;
4565;SDS011;2295;51.050;14.608;2024-03-17T05:16:51;8.43;;;3.83;;
4565;SDS011;2295;51.050;14.608;2024-03-17T05:19:19;7.38;;;4.32;;
4565;SDS011;2295;51.050;14.608;2024-03-17T05:21:46;14.80;;;4.47;;
4565;SDS011;2295;51.050;14.608;2024-03-17T05:24:15;10.77;;;4.88;;
4565;SDS011;2295;51.050;14.608;2024-03-17T05:26:48;17.70;;;5.35;;
4565;SDS011;2295;51.050;14.608;2024-03-17T05:29:16;12.30;;;4.90;;
4565;SDS011;2295;51.050;14.608;2024-03-17T05:31:46;16.02;;;4.40;;
4565;SDS011;2295;51.050;14.608;2024-03-17T05:34:13;11.52;;;4.22;;
4565;SDS011;2295;51.050;14.608;2024-03-17T05:36:41;15.63;;;4.65;;
4565;SDS011;2295;51.050;14.608;2024-03-17T05:39:08;7.07;;;4.00;;
4565;SDS011;2295;51.050;14.608;2024-03-17T05:41:37;8.98;;;3.50;;
4565;SDS011;2295;51.050;14.608;2024-03-17T05:44:05;7.47;;;3.40;;
4565;SDS011;2295;51.050;14.608;2024-03-17T05:46:32;30.67;;;4.65;;
4565;SDS011;2295;51.050;14.608;2024-03-17T05:49:00;10.25;;;4.57;;
4565;SDS011;2295;51.050;14.608;2024-03-17T05:51:28;15.15;;;3.60;;
4565;SDS011;2295;51.050;14.608;2024-03-17T05:53:56;9.55;;;3.47;;
4565;SDS011;2295;51.050;14.608;2024-03-17T05:56:24;7.20;;;3.45;;
4565;SDS011;2295;51.050;14.608;2024-03-17T05:58:53;11.77;;;3.88;;
4565;SDS011;2295;51.050;14.608;2024-03-17T06:01:20;10.27;;;3.67;;
4565;SDS011;2295;51.050;14.608;2024-03-17T06:03:48;13.35;;;3.60;;
4565;SDS011;2295;51.050;14.608;2024-03-17T06:06:15;12.75;;;3.22;;
4565;SDS011;2295;51.050;14.608;2024-03-17T06:08:47;7.88;;;3.13;;
4565;SDS011;2295;51.050;14.608;2024-03-17T06:11:36;11.75;;;2.67;;
4565;SDS011;2295;51.050;14.608;2024-03-17T06:14:06;5.85;;;3.15;;
4565;SDS011;2295;51.050;14.608;2024-03-17T06:16:37;13.82;;;3.03;;
4565;SDS011;2295;51.050;14.608;2024-03-17T06:19:04;14.00;;;3.00;;
4565;SDS011;2295;51.050;14.608;2024-03-17T06:21:32;12.02;;;2.35;;
4565;SDS011;2295;51.050;14.608;2024-03-17T06:24:00;7.68;;;2.75;;
4565;SDS011;2295;51.050;14.608;2024-03-17T06:26:27;10.23;;;2.83;;
4565;SDS011;2295;51.050;14.608;2024-03-17T06:28:57;12.88;;;2.55;;
4565;SDS011;2295;51.050;14.608;2024-03-17T06:31:26;8.90;;;2.83;;
4565;SDS011;2295;51.050;14.608;2024-03-17T06:33:54;8.20;;;2.00;;
4565;SDS011;2295;51.050;14.608;2024-03-17T06:36:21;10.98;;;2.15;;
4565;SDS011;2295;51.050;14.608;2024-03-17T06:38:48;11.23;;;2.63;;
4565;SDS011;2295;51.050;14.608;2024-03-17T06:41:16;10.38;;;2.38;;
4565;SDS011;2295;51.050;14.608;2024-03-17T06:43:44;14.45;;;2.40;;
4565;SDS011;2295;51.050;14.608;2024-03-17T06:46:11;13.63;;;2.63;;
4565;SDS011;2295;51.050;14.608;2024-03-17T06:48:40;16.15;;;3.13;;
4565;SDS011;2295;51.050;14.608;2024-03-17T06:51:08;11.20;;;2.47;;
4565;SDS011;2295;51.050;14.608;2024-03-17T06:53:35;16.27;;;3.38;;
4565;SDS011;2295;51.050;14.608;2024-03-17T06:56:02;11.15;;;2.80;;
4565;SDS011;2295;51.050;14.608;2024-03-17T06:58:31;7.65;;;2.85;;
4565;SDS011;2295;51.050;14.608;2024-03-17T07:00:59;13.20;;;3.70;;
4565;SDS011;2295;51.050;14.608;2024-03-17T07:03:28;13.23;;;3.55;;
4565;SDS011;2295;51.050;14.608;2024-03-17T07:05:58;7.43;;;3.25;;
4565;SDS011;2295;51.050;14.608;2024-03-17T07:08:27;9.00;;;2.85;;
4565;SDS011;2295;51.050;14.608;2024-03-17T07:10:56;8.40;;;3.15;;
4565;SDS011;2295;51.050;14.608;2024-03-17T07:13:28;16.23;;;3.60;;
4565;SDS011;2295;51.050;14.608;2024-03-17T07:16:00;11.88;;;3.00;;
4565;SDS011;2295;51.050;14.608;2024-03-17T07:18:28;7.40;;;2.75;;
4565;SDS011;2295;51.050;14.608;2024-03-17T07:21:00;11.90;;;2.60;;
4565;SDS011;2295;51.050;14.608;2024-03-17T07:23:29;11.27;;;2.90;;
4565;SDS011;2295;51.050;14.608;2024-03-17T07:25:57;6.97;;;2.47;;
4565;SDS011;2295;51.050;14.608;2024-03-17T07:28:26;15.40;;;2.55;;
4565;SDS011;2295;51.050;14.608;2024-03-17T07:30:53;8.50;;;2.45;;
4565;SDS011;2295;51.050;14.608;2024-03-17T07:33:22;11.90;;;2.67;;
4565;SDS011;2295;51.050;14.608;2024-03-17T07:35:51;9.68;;;2.50;;
4565;SDS011;2295;51.050;14.608;2024-03-17T07:38:22;12.85;;;2.50;;
4565;SDS011;2295;51.050;14.608;2024-03-17T07:40:58;10.18;;;2.47;;
4565;SDS011;2295;51.050;14.608;2024-03-17T07:43:26;8.65;;;2.83;;
4565;SDS011;2295;51.050;14.608;2024-03-17T07:45:58;5.15;;;2.17;;
4565;SDS011;2295;51.050;14.608;2024-03-17T07:48:26;18.75;;;2.55;;
4565;SDS011;2295;51.050;14.608;2024-03-17T07:50:54;13.23;;;2.65;;
4565;SDS011;2295;51.050;14.608;2024-03-17T07:53:23;14.00;;;2.77;;
4565;SDS011;2295;51.050;14.608;2024-03-17T07:55:59;5.68;;;2.05;;
4565;SDS011;2295;51.050;14.608;2024-03-17T07:58:27;11.20;;;3.13;;
4565;SDS011;2295;51.050;14.608;2024-03-17T08:00:57;14.30;;;2.50;;
4565;SDS011;2295;51.050;14.608;2024-03-17T08:03:26;8.90;;;2.33;;
4565;SDS011;2295;51.050;14.608;2024-03-17T08:05:54;11.23;;;2.80;;
4565;SDS011;2295;51.050;14.608;2024-03-17T08:08:21;7.83;;;2.27;;
4565;SDS011;2295;51.050;14.608;2024-03-17T08:10:50;10.13;;;2.13;;
4565;SDS011;2295;51.050;14.608;2024-03-17T08:13:17;7.67;;;2.27;;
4565;SDS011;2295;51.050;14.608;2024-03-17T08:15:45;14.67;;;5.20;;
4565;SDS011;2295;51.050;14.608;2024-03-17T08:18:22;4.53;;;2.73;;
4565;SDS011;2295;51.050;14.608;2024-03-17T08:20:49;15.70;;;5.10;;
4565;SDS011;2295;51.050;14.608;2024-03-17T08:23:16;23.23;;;9.20;;
4565;SDS011;2295;51.050;14.608;2024-03-17T08:25:49;17.30;;;9.47;;
4565;SDS011;2295;51.050;14.608;2024-03-17T08:28:20;8.70;;;4.93;;
4565;SDS011;2295;51.050;14.608;2024-03-17T08:30:51;35.80;;;13.93;;
4565;SDS011;2295;51.050;14.608;2024-03-17T08:33:19;15.63;;;6.57;;
4565;SDS011;2295;51.050;14.608;2024-03-17T08:35:54;21.00;;;10.70;;
4565;SDS011;2295;51.050;14.608;2024-03-17T08:38:22;10.82;;;4.05;;
4565;SDS011;2295;51.050;14.608;2024-03-17T08:40:50;23.73;;;9.18;;
4565;SDS011;2295;51.050;14.608;2024-03-17T08:43:19;34.40;;;12.20;;
4565;SDS011;2295;51.050;14.608;2024-03-17T08:45:54;17.00;;;4.70;;
4565;SDS011;2295;51.050;14.608;2024-03-17T08:48:24;5.20;;;2.13;;
4565;SDS011;2295;51.050;14.608;2024-03-17T08:50:52;9.60;;;3.17;;
4565;SDS011;2295;51.050;14.608;2024-03-17T08:53:20;9.73;;;2.45;;
4565;SDS011;2295;51.050;14.608;2024-03-17T08:55:47;9.30;;;2.30;;
4565;SDS011;2295;51.050;14.608;2024-03-17T08:58:15;6.90;;;1.88;;
4565;SDS011;2295;51.050;14.608;2024-03-17T09:00:43;11.23;;;1.80;;
4565;SDS011;2295;51.050;14.608;2024-03-17T09:03:11;4.85;;;2.05;;
4565;SDS011;2295;51.050;14.608;2024-03-17T09:05:38;8.65;;;1.55;;
4565;SDS011;2295;51.050;14.608;2024-03-17T09:08:07;4.88;;;2.20;;
4565;SDS011;2295;51.050;14.608;2024-03-17T09:10:38;5.10;;;1.30;;
4565;SDS011;2295;51.050;14.608;2024-03-17T09:13:09;8.48;;;1.98;;
4565;SDS011;2295;51.050;14.608;2024-03-17T09:15:40;13.27;;;1.63;;
4565;SDS011;2295;51.050;14.608;2024-03-17T09:18:09;4.10;;;1.52;;
4565;SDS011;2295;51.050;14.608;2024-03-17T09:20:36;7.38;;;1.70;;
4565;SDS011;2295;51.050;14.608;2024-03-17T09:23:03;6.35;;;2.25;;
4565;SDS011;2295;51.050;14.608;2024-03-17T09:25:31;12.18;;;1.90;;
4565;SDS011;2295;51.050;14.608;2024-03-17T09:27:58;6.10;;;1.50;;
4565;SDS011;2295;51.050;14.608;2024-03-17T09:30:25;7.68;;;1.70;;
4565;SDS011;2295;51.050;14.608;2024-03-17T09:32:53;3.88;;;1.30;;
4565;SDS011;2295;51.050;14.608;2024-03-17T09:35:21;6.40;;;1.90;;
4565;SDS011;2295;51.050;14.608;2024-03-17T09:37:52;8.00;;;1.90;;
4565;SDS011;2295;51.050;14.608;2024-03-17T09:40:19;5.30;;;1.48;;
4565;SDS011;2295;51.050;14.608;2024-03-17T09:42:47;7.05;;;1.30;;
4565;SDS011;2295;51.050;14.608;2024-03-17T09:45:15;6.25;;;1.70;;
4565;SDS011;2295;51.050;14.608;2024-03-17T09:47:44;12.60;;;1.85;;
4565;SDS011;2295;51.050;14.608;2024-03-17T09:50:13;7.78;;;1.90;;
4565;SDS011;2295;51.050;14.608;2024-03-17T09:52:44;3.83;;;1.42;;
4565;SDS011;2295;51.050;14.608;2024-03-17T09:55:14;9.27;;;1.38;;
4565;SDS011;2295;51.050;14.608;2024-03-17T09:57:43;5.63;;;1.30;;
4565;SDS011;2295;51.050;14.608;2024-03-17T10:00:13;7.10;;;1.60;;
4565;SDS011;2295;51.050;14.608;2024-03-17T10:02:42;4.13;;;1.60;;
4565;SDS011;2295;51.050;14.608;2024-03-17T10:05:21;8.10;;;1.63;;
4565;SDS011;2295;51.050;14.608;2024-03-17T10:07:50;6.88;;;1.75;;
4565;SDS011;2295;51.050;14.608;2024-03-17T10:10:20;11.98;;;2.33;;
4565;SDS011;2295;51.050;14.608;2024-03-17T10:12:49;6.82;;;1.70;;
4565;SDS011;2295;51.050;14.608;2024-03-17T10:15:17;9.95;;;2.20;;
4565;SDS011;2295;51.050;14.608;2024-03-17T10:17:45;5.18;;;1.80;;
4565;SDS011;2295;51.050;14.608;2024-03-17T10:20:16;3.80;;;1.40;;
4565;SDS011;2295;51.050;14.608;2024-03-17T10:22:58;5.97;;;1.25;;
4565;SDS011;2295;51.050;14.608;2024-03-17T10:25:27;9.35;;;1.75;;
4565;SDS011;2295;51.050;14.608;2024-03-17T10:27:55;7.05;;;1.60;;
4565;SDS011;2295;51.050;14.608;2024-03-17T10:30:23;9.10;;;1.90;;
4565;SDS011;2295;51.050;14.608;2024-03-17T10:32:52;3.63;;;1.60;;
4565;SDS011;2295;51.050;14.608;2024-03-17T10:35:27;7.18;;;1.60;;
4565;SDS011;2295;51.050;14.608;2024-03-17T10:37:56;7.35;;;2.30;;
4565;SDS011;2295;51.050;14.608;2024-03-17T10:40:26;11.10;;;2.00;;
4565;SDS011;2295;51.050;14.608;2024-03-17T10:42:56;7.57;;;1.65;;
4565;SDS011;2295;51.050;14.608;2024-03-17T10:45:25;6.50;;;1.70;;
4565;SDS011;2295;51.050;14.608;2024-03-17T10:47:56;4.32;;;1.80;;
4565;SDS011;2295;51.050;14.608;2024-03-17T10:50:28;4.80;;;1.50;;
4565;SDS011;2295;51.050;14.608;2024-03-17T10:53:01;7.22;;;1.65;;
4565;SDS011;2295;51.050;14.608;2024-03-17T10:55:31;3.30;;;1.30;;
4565;SDS011;2295;51.050;14.608;2024-03-17T10:58:06;3.92;;;1.50;;
4565;SDS011;2295;51.050;14.608;2024-03-17T11:00:47;6.57;;;1.60;;
4565;SDS011;2295;51.050;14.608;2024-03-17T11:03:17;12.50;;;2.05;;
4565;SDS011;2295;51.050;14.608;2024-03-17T11:05:46;5.03;;;1.83;;
4565;SDS011;2295;51.050;14.608;2024-03-17T11:08:17;6.32;;;1.60;;
4565;SDS011;2295;51.050;14.608;2024-03-17T11:10:49;6.78;;;1.58;;
4565;SDS011;2295;51.050;14.608;2024-03-17T11:13:25;8.40;;;1.90;;
4565;SDS011;2295;51.050;14.608;2024-03-17T11:15:53;7.80;;;1.75;;
4565;SDS011;2295;51.050;14.608;2024-03-17T11:18:33;10.02;;;1.92;;
4565;SDS011;2295;51.050;14.608;2024-03-17T11:21:02;4.40;;;1.85;;
4565;SDS011;2295;51.050;14.608;2024-03-17T11:23:38;4.22;;;1.50;;
4565;SDS011;2295;51.050;14.608;2024-03-17T11:26:06;7.18;;;2.00;;
4565;SDS011;2295;51.050;14.608;2024-03-17T11:28:46;7.40;;;1.70;;
4565;SDS011;2295;51.050;14.608;2024-03-17T11:31:34;8.88;;;2.22;;
4565;SDS011;2295;51.050;14.608;2024-03-17T11:34:06;8.23;;;2.50;;
4565;SDS011;2295;51.050;14.608;2024-03-17T11:36:50;13.98;;;2.67;;
4565;SDS011;2295;51.050;14.608;2024-03-17T11:39:20;7.13;;;2.13;;
4565;SDS011;2295;51.050;14.608;2024-03-17T11:42:07;6.65;;;2.40;;
4565;SDS011;2295;51.050;14.608;2024-03-17T11:44:41;6.00;;;2.95;;
4565;SDS011;2295;51.050;14.608;2024-03-17T11:47:10;8.85;;;2.65;;
4565;SDS011;2295;51.050;14.608;2024-03-17T11:49:37;3.47;;;1.55;;
4565;SDS011;2295;51.050;14.608;2024-03-17T11:52:08;9.27;;;2.60;;
4565;SDS011;2295;51.050;14.608;2024-03-17T11:54:38;6.78;;;2.53;;
4565;SDS011;2295;51.050;14.608;2024-03-17T11:57:07;5.53;;;1.85;;
4565;SDS011;2295;51.050;14.608;2024-03-17T11:59:34;9.45;;;2.33;;
4565;SDS011;2295;51.050;14.608;2024-03-17T12:02:07;6.60;;;1.95;;
4565;SDS011;2295;51.050;14.608;2024-03-17T12:04:38;4.10;;;1.42;;
4565;SDS011;2295;51.050;14.608;2024-03-17T12:07:09;3.88;;;1.70;;
4565;SDS011;2295;51.050;14.608;2024-03-17T12:09:40;1.40;;;1.30;;
4565;SDS011;2295;51.050;14.608;2024-03-17T12:12:08;5.60;;;2.47;;
4565;SDS011;2295;51.050;14.608;2024-03-17T12:14:37;5.18;;;2.40;;
4565;SDS011;2295;51.050;14.608;2024-03-17T12:17:05;6.70;;;1.70;;
4565;SDS011;2295;51.050;14.608;2024-03-17T12:19:33;4.55;;;1.60;;
4565;SDS011;2295;51.050;14.608;2024-03-17T12:22:01;5.80;;;1.80;;
4565;SDS011;2295;51.050;14.608;2024-03-17T12:24:29;4.97;;;1.40;;
4565;SDS011;2295;51.050;14.608;2024-03-17T12:26:59;5.00;;;2.22;;
4565;SDS011;2295;51.050;14.608;2024-03-17T12:29:29;3.35;;;1.90;;
4565;SDS011;2295;51.050;14.608;2024-03-17T12:31:58;4.93;;;1.48;;
4565;SDS011;2295;51.050;14.608;2024-03-17T12:34:27;5.47;;;2.10;;
4565;SDS011;2295;51.050;14.608;2024-03-17T12:36:56;5.95;;;1.65;;
4565;SDS011;2295;51.050;14.608;2024-03-17T12:39:24;4.55;;;1.95;;
4565;SDS011;2295;51.050;14.608;2024-03-17T12:42:03;5.25;;;1.55;;
4565;SDS011;2295;51.050;14.608;2024-03-17T12:44:30;6.60;;;1.60;;
4565;SDS011;2295;51.050;14.608;2024-03-17T12:46:59;9.65;;;1.83;;
4565;SDS011;2295;51.050;14.608;2024-03-17T12:49:28;5.70;;;1.75;;
4565;SDS011;2295;51.050;14.608;2024-03-17T12:51:56;3.33;;;1.60;;
4565;SDS011;2295;51.050;14.608;2024-03-17T12:54:24;5.32;;;1.30;;
4565;SDS011;2295;51.050;14.608;2024-03-17T12:56:52;6.03;;;1.45;;
4565;SDS011;2295;51.050;14.608;2024-03-17T12:59:49;6.30;;;1.70;;
4565;SDS011;2295;51.050;14.608;2024-03-17T13:02:42;5.93;;;1.55;;
4565;SDS011;2295;51.050;14.608;2024-03-17T13:05:17;9.75;;;1.50;;
4565;SDS011;2295;51.050;14.608;2024-03-17T13:07:46;6.13;;;1.80;;
4565;SDS011;2295;51.050;14.608;2024-03-17T13:10:14;6.18;;;1.80;;
4565;SDS011;2295;51.050;14.608;2024-03-17T13:12:44;4.75;;;1.50;;
4565;SDS011;2295;51.050;14.608;2024-03-17T13:15:12;10.15;;;1.40;;
4565;SDS011;2295;51.050;14.608;2024-03-17T13:17:40;4.57;;;1.55;;
4565;SDS011;2295;51.050;14.608;2024-03-17T13:20:08;8.52;;;1.67;;
4565;SDS011;2295;51.050;14.608;2024-03-17T13:22:40;13.05;;;3.05;;
4565;SDS011;2295;51.050;14.608;2024-03-17T13:25:12;8.52;;;1.85;;
4565;SDS011;2295;51.050;14.608;2024-03-17T13:27:41;5.43;;;1.73;;
4565;SDS011;2295;51.050;14.608;2024-03-17T13:30:14;9.45;;;1.77;;
4565;SDS011;2295;51.050;14.608;2024-03-17T13:32:42;4.18;;;1.95;;
4565;SDS011;2295;51.050;14.608;2024-03-17T13:35:14;10.55;;;2.60;;
4565;SDS011;2295;51.050;14.608;2024-03-17T13:37:42;3.67;;;1.45;;
4565;SDS011;2295;51.050;14.608;2024-03-17T13:40:10;7.05;;;1.70;;
4565;SDS011;2295;51.050;14.608;2024-03-17T13:42:41;6.53;;;1.65;;
4565;SDS011;2295;51.050;14.608;2024-03-17T13:45:11;8.95;;;1.77;;
4565;SDS011;2295;51.050;14.608;2024-03-17T13:47:39;5.70;;;1.70;;
4565;SDS011;2295;51.050;14.608;2024-03-17T13:50:08;6.97;;;1.55;;
4565;SDS011;2295;51.050;14.608;2024-03-17T13:52:38;5.93;;;2.00;;
4565;SDS011;2295;51.050;14.608;2024-03-17T13:55:06;5.95;;;1.60;;
4565;SDS011;2295;51.050;14.608;2024-03-17T13:57:38;9.10;;;1.60;;
4565;SDS011;2295;51.050;14.608;2024-03-17T14:00:07;3.03;;;1.60;;
4565;SDS011;2295;51.050;14.608;2024-03-17T14:02:36;5.35;;;2.17;;
4565;SDS011;2295;51.050;14.608;2024-03-17T14:05:04;8.02;;;2.10;;
4565;SDS011;2295;51.050;14.608;2024-03-17T14:07:33;9.25;;;2.03;;
4565;SDS011;2295;51.050;14.608;2024-03-17T14:10:00;3.83;;;1.70;;
4565;SDS011;2295;51.050;14.608;2024-03-17T14:12:28;7.15;;;2.03;;
4565;SDS011;2295;51.050;14.608;2024-03-17T14:14:56;3.70;;;1.60;;
4565;SDS011;2295;51.050;14.608;2024-03-17T14:17:24;9.82;;;2.30;;
4565;SDS011;2295;51.050;14.608;2024-03-17T14:19:53;3.65;;;1.90;;
4565;SDS011;2295;51.050;14.608;2024-03-17T14:22:20;7.97;;;2.10;;
4565;SDS011;2295;51.050;14.608;2024-03-17T14:24:47;5.35;;;2.20;;
4565;SDS011;2295;51.050;14.608;2024-03-17T14:27:15;3.90;;;1.70;;
4565;SDS011;2295;51.050;14.608;2024-03-17T14:29:43;6.78;;;1.73;;
4565;SDS011;2295;51.050;14.608;2024-03-17T14:32:10;6.05;;;2.05;;
4565;SDS011;2295;51.050;14.608;2024-03-17T14:34:39;5.03;;;1.67;;
4565;SDS011;2295;51.050;14.608;2024-03-17T14:37:08;9.30;;;2.00;;
4565;SDS011;2295;51.050;14.608;2024-03-17T14:39:41;4.57;;;1.70;;
4565;SDS011;2295;51.050;14.608;2024-03-17T14:42:09;7.80;;;1.70;;
4565;SDS011;2295;51.050;14.608;2024-03-17T14:44:37;5.50;;;1.80;;
4565;SDS011;2295;51.050;14.608;2024-03-17T14:47:04;5.82;;;1.90;;
4565;SDS011;2295;51.050;14.608;2024-03-17T14:49:32;8.35;;;2.00;;
4565;SDS011;2295;51.050;14.608;2024-03-17T14:52:00;9.75;;;2.00;;
4565;SDS011;2295;51.050;14.608;2024-03-17T14:54:28;6.80;;;1.70;;
4565;SDS011;2295;51.050;14.608;2024-03-17T14:56:56;6.00;;;1.63;;
4565;SDS011;2295;51.050;14.608;2024-03-17T14:59:23;5.38;;;1.42;;
4565;SDS011;2295;51.050;14.608;2024-03-17T15:01:50;6.22;;;1.60;;
4565;SDS011;2295;51.050;14.608;2024-03-17T15:04:18;13.70;;;2.05;;
4565;SDS011;2295;51.050;14.608;2024-03-17T15:06:45;8.18;;;2.30;;
4565;SDS011;2295;51.050;14.608;2024-03-17T15:09:12;7.88;;;1.63;;
4565;SDS011;2295;51.050;14.608;2024-03-17T15:11:45;5.70;;;2.30;;
4565;SDS011;2295;51.050;14.608;2024-03-17T15:14:13;10.25;;;2.58;;